sensor_id;sensor_type;location;lat;lon;timestamp;temperature;humidity
39189;DHT22;24915;50.858;4.376;2022-10-31T00:00:54;15.70;99.90
39189;DHT22;24915;50.858;4.376;2022-10-31T00:03:19;15.80;99.90
39189;DHT22;24915;50.858;4.376;2022-10-31T00:05:47;15.70;99.90
39189;DHT22;24915;50.858;4.376;2022-10-31T00:08:13;15.70;99.90
39189;DHT22;24915;50.858;4.376;2022-10-31T00:10:40;15.80;99.90
39189;DHT22;24915;50.858;4.376;2022-10-31T00:13:07;15.80;99.90
39189;DHT22;24915;50.858;4.376;2022-10-31T00:15:34;15.80;99.90
39189;DHT22;24915;50.858;4.376;2022-10-31T00:18:01;15.80;99.90
39189;DHT22;24915;50.858;4.376;2022-10-31T00:20:26;15.80;99.90
39189;DHT22;24915;50.858;4.376;2022-10-31T00:22:52;15.70;99.90
39189;DHT22;24915;50.858;4.376;2022-10-31T00:25:18;15.70;99.90
39189;DHT22;24915;50.858;4.376;2022-10-31T00:27:43;15.70;99.90
39189;DHT22;24915;50.858;4.376;2022-10-31T00:30:09;15.70;99.90
39189;DHT22;24915;50.858;4.376;2022-10-31T00:32:35;15.60;99.90
39189;DHT22;24915;50.858;4.376;2022-10-31T00:35:00;15.60;99.90
39189;DHT22;24915;50.858;4.376;2022-10-31T00:37:26;15.50;99.90
39189;DHT22;24915;50.858;4.376;2022-10-31T00:39:52;15.50;99.90
39189;DHT22;24915;50.858;4.376;2022-10-31T00:42:18;15.50;99.90
39189;DHT22;24915;50.858;4.376;2022-10-31T00:44:43;15.40;99.90
39189;DHT22;24915;50.858;4.376;2022-10-31T00:47:09;15.40;99.90
39189;DHT22;24915;50.858;4.376;2022-10-31T00:49:34;15.40;99.90
39189;DHT22;24915;50.858;4.376;2022-10-31T00:52:00;15.40;99.90
39189;DHT22;24915;50.858;4.376;2022-10-31T00:54:26;15.50;99.90
39189;DHT22;24915;50.858;4.376;2022-10-31T00:56:51;15.50;99.90
39189;DHT22;24915;50.858;4.376;2022-10-31T00:59:17;15.40;99.90
39189;DHT22;24915;50.858;4.376;2022-10-31T01:01:42;15.40;99.90
39189;DHT22;24915;50.858;4.376;2022-10-31T01:04:08;15.40;99.90
39189;DHT22;24915;50.858;4.376;2022-10-31T01:06:34;15.40;99.90
39189;DHT22;24915;50.858;4.376;2022-10-31T01:08:59;15.40;99.90
39189;DHT22;24915;50.858;4.376;2022-10-31T01:11:25;15.30;99.90
39189;DHT22;24915;50.858;4.376;2022-10-31T01:13:53;15.30;99.90
39189;DHT22;24915;50.858;4.376;2022-10-31T01:16:21;15.30;99.90
39189;DHT22;24915;50.858;4.376;2022-10-31T01:18:47;15.30;99.90
39189;DHT22;24915;50.858;4.376;2022-10-31T01:21:15;15.20;99.90
39189;DHT22;24915;50.858;4.376;2022-10-31T01:23:41;15.20;99.90
39189;DHT22;24915;50.858;4.376;2022-10-31T01:26:13;15.20;99.90
39189;DHT22;24915;50.858;4.376;2022-10-31T01:28:47;15.20;99.90
39189;DHT22;24915;50.858;4.376;2022-10-31T01:31:13;15.20;99.90
39189;DHT22;24915;50.858;4.376;2022-10-31T01:33:39;15.10;99.90
39189;DHT22;24915;50.858;4.376;2022-10-31T01:36:26;15.10;99.90
39189;DHT22;24915;50.858;4.376;2022-10-31T01:38:55;15.10;99.90
39189;DHT22;24915;50.858;4.376;2022-10-31T01:41:23;15.20;99.90
39189;DHT22;24915;50.858;4.376;2022-10-31T01:43:56;15.10;99.90
39189;DHT22;24915;50.858;4.376;2022-10-31T01:48:59;15.10;99.90
39189;DHT22;24915;50.858;4.376;2022-10-31T01:51:30;15.10;99.90
39189;DHT22;24915;50.858;4.376;2022-10-31T01:54:02;15.10;99.90
39189;DHT22;24915;50.858;4.376;2022-10-31T01:56:30;15.10;99.90
39189;DHT22;24915;50.858;4.376;2022-10-31T01:58:58;15.10;99.90
39189;DHT22;24915;50.858;4.376;2022-10-31T02:01:24;15.10;99.90
39189;DHT22;24915;50.858;4.376;2022-10-31T02:03:50;15.10;99.90
39189;DHT22;24915;50.858;4.376;2022-10-31T02:06:31;15.10;99.90
39189;DHT22;24915;50.858;4.376;2022-10-31T02:08:59;15.10;99.90
39189;DHT22;24915;50.858;4.376;2022-10-31T02:11:27;15.10;99.90
39189;DHT22;24915;50.858;4.376;2022-10-31T02:13:54;15.10;99.90
39189;DHT22;24915;50.858;4.376;2022-10-31T02:16:20;15.10;99.90
39189;DHT22;24915;50.858;4.376;2022-10-31T02:18:45;15.10;99.90
39189;DHT22;24915;50.858;4.376;2022-10-31T02:29:18;14.90;99.90
39189;DHT22;24915;50.858;4.376;2022-10-31T02:32:06;14.90;99.90
39189;DHT22;24915;50.858;4.376;2022-10-31T02:34:36;14.90;99.90
39189;DHT22;24915;50.858;4.376;2022-10-31T02:45:42;14.80;99.90
39189;DHT22;24915;50.858;4.376;2022-10-31T02:48:14;14.80;99.90
39189;DHT22;24915;50.858;4.376;2022-10-31T02:50:43;14.80;99.90
39189;DHT22;24915;50.858;4.376;2022-10-31T02:53:14;14.80;99.90
39189;DHT22;24915;50.858;4.376;2022-10-31T02:55:49;14.80;99.90
39189;DHT22;24915;50.858;4.376;2022-10-31T02:58:19;14.80;99.90
39189;DHT22;24915;50.858;4.376;2022-10-31T03:03:42;14.80;99.90
39189;DHT22;24915;50.858;4.376;2022-10-31T03:06:27;14.80;99.90
39189;DHT22;24915;50.858;4.376;2022-10-31T03:11:48;14.70;99.90
39189;DHT22;24915;50.858;4.376;2022-10-31T03:14:27;14.70;99.90
39189;DHT22;24915;50.858;4.376;2022-10-31T03:16:59;14.70;99.90
39189;DHT22;24915;50.858;4.376;2022-10-31T03:19:31;14.70;99.90
39189;DHT22;24915;50.858;4.376;2022-10-31T03:22:04;14.70;99.90
39189;DHT22;24915;50.858;4.376;2022-10-31T03:24:37;14.70;99.90
39189;DHT22;24915;50.858;4.376;2022-10-31T03:27:07;14.70;99.90
39189;DHT22;24915;50.858;4.376;2022-10-31T03:29:35;14.70;99.90
39189;DHT22;24915;50.858;4.376;2022-10-31T03:32:09;14.70;99.90
39189;DHT22;24915;50.858;4.376;2022-10-31T03:34:37;14.70;99.90
39189;DHT22;24915;50.858;4.376;2022-10-31T03:37:07;14.70;99.90
39189;DHT22;24915;50.858;4.376;2022-10-31T03:39:37;14.70;99.90
39189;DHT22;24915;50.858;4.376;2022-10-31T03:42:23;14.70;99.90
39189;DHT22;24915;50.858;4.376;2022-10-31T03:45:17;14.70;99.90
39189;DHT22;24915;50.858;4.376;2022-10-31T03:47:45;14.70;99.90
39189;DHT22;24915;50.858;4.376;2022-10-31T03:50:13;14.70;99.90
39189;DHT22;24915;50.858;4.376;2022-10-31T03:52:44;14.70;99.90
39189;DHT22;24915;50.858;4.376;2022-10-31T03:55:19;14.70;99.90
39189;DHT22;24915;50.858;4.376;2022-10-31T03:57:49;14.60;99.90
39189;DHT22;24915;50.858;4.376;2022-10-31T04:00:16;14.60;99.90
39189;DHT22;24915;50.858;4.376;2022-10-31T04:02:55;14.60;99.90
39189;DHT22;24915;50.858;4.376;2022-10-31T04:05:24;14.50;99.90
39189;DHT22;24915;50.858;4.376;2022-10-31T04:07:53;14.50;99.90
39189;DHT22;24915;50.858;4.376;2022-10-31T04:10:21;14.50;99.90
39189;DHT22;24915;50.858;4.376;2022-10-31T04:12:52;14.50;99.90
39189;DHT22;24915;50.858;4.376;2022-10-31T04:15:21;14.40;99.90
39189;DHT22;24915;50.858;4.376;2022-10-31T04:17:50;14.40;99.90
39189;DHT22;24915;50.858;4.376;2022-10-31T04:20:17;14.40;99.90
39189;DHT22;24915;50.858;4.376;2022-10-31T04:22:43;14.40;99.90
39189;DHT22;24915;50.858;4.376;2022-10-31T04:25:09;14.40;99.90
39189;DHT22;24915;50.858;4.376;2022-10-31T04:27:35;14.30;99.90
39189;DHT22;24915;50.858;4.376;2022-10-31T04:30:00;14.30;99.90
39189;DHT22;24915;50.858;4.376;2022-10-31T04:32:26;14.30;99.90
39189;DHT22;24915;50.858;4.376;2022-10-31T04:34:52;14.30;99.90
39189;DHT22;24915;50.858;4.376;2022-10-31T04:37:17;14.20;99.90
39189;DHT22;24915;50.858;4.376;2022-10-31T04:39:43;14.20;99.90
39189;DHT22;24915;50.858;4.376;2022-10-31T04:42:08;14.10;99.90
39189;DHT22;24915;50.858;4.376;2022-10-31T04:44:34;14.10;99.90
39189;DHT22;24915;50.858;4.376;2022-10-31T04:47:00;14.10;99.90
39189;DHT22;24915;50.858;4.376;2022-10-31T04:49:25;14.10;99.90
39189;DHT22;24915;50.858;4.376;2022-10-31T04:51:51;14.10;99.90
39189;DHT22;24915;50.858;4.376;2022-10-31T04:54:16;14.10;99.90
39189;DHT22;24915;50.858;4.376;2022-10-31T04:56:42;14.10;99.90
39189;DHT22;24915;50.858;4.376;2022-10-31T04:59:08;14.10;99.90
39189;DHT22;24915;50.858;4.376;2022-10-31T05:01:33;14.00;99.90
39189;DHT22;24915;50.858;4.376;2022-10-31T05:03:59;13.90;99.90
39189;DHT22;24915;50.858;4.376;2022-10-31T05:06:24;13.90;99.90
39189;DHT22;24915;50.858;4.376;2022-10-31T05:08:50;13.90;99.90
39189;DHT22;24915;50.858;4.376;2022-10-31T05:11:16;13.90;99.90
39189;DHT22;24915;50.858;4.376;2022-10-31T05:13:41;13.80;99.90
39189;DHT22;24915;50.858;4.376;2022-10-31T05:16:07;13.80;99.90
39189;DHT22;24915;50.858;4.376;2022-10-31T05:18:33;13.80;99.90
39189;DHT22;24915;50.858;4.376;2022-10-31T05:20:58;13.80;99.90
39189;DHT22;24915;50.858;4.376;2022-10-31T05:23:24;13.80;99.90
39189;DHT22;24915;50.858;4.376;2022-10-31T05:25:49;13.70;99.90
39189;DHT22;24915;50.858;4.376;2022-10-31T05:28:15;13.70;99.90
39189;DHT22;24915;50.858;4.376;2022-10-31T05:30:41;13.70;99.90
39189;DHT22;24915;50.858;4.376;2022-10-31T05:33:06;13.70;99.90
39189;DHT22;24915;50.858;4.376;2022-10-31T05:35:32;13.70;99.90
39189;DHT22;24915;50.858;4.376;2022-10-31T05:37:58;13.70;99.90
39189;DHT22;24915;50.858;4.376;2022-10-31T05:40:26;13.70;99.90
39189;DHT22;24915;50.858;4.376;2022-10-31T05:42:53;13.80;99.90
39189;DHT22;24915;50.858;4.376;2022-10-31T05:45:20;13.80;99.90
39189;DHT22;24915;50.858;4.376;2022-10-31T05:50:17;13.80;99.90
39189;DHT22;24915;50.858;4.376;2022-10-31T05:52:43;13.80;99.90
39189;DHT22;24915;50.858;4.376;2022-10-31T05:55:09;13.80;99.90
39189;DHT22;24915;50.858;4.376;2022-10-31T05:57:34;13.70;99.90
39189;DHT22;24915;50.858;4.376;2022-10-31T06:00:00;13.70;99.90
39189;DHT22;24915;50.858;4.376;2022-10-31T06:02:25;13.70;99.90
39189;DHT22;24915;50.858;4.376;2022-10-31T06:04:52;13.70;99.90
39189;DHT22;24915;50.858;4.376;2022-10-31T06:07:18;13.80;99.90
39189;DHT22;24915;50.858;4.376;2022-10-31T06:09:43;13.80;99.90
39189;DHT22;24915;50.858;4.376;2022-10-31T06:12:09;13.80;99.90
39189;DHT22;24915;50.858;4.376;2022-10-31T06:14:34;13.90;99.90
39189;DHT22;24915;50.858;4.376;2022-10-31T06:17:03;13.90;99.90
39189;DHT22;24915;50.858;4.376;2022-10-31T06:19:29;13.90;99.90
39189;DHT22;24915;50.858;4.376;2022-10-31T06:21:54;13.90;99.90
39189;DHT22;24915;50.858;4.376;2022-10-31T06:24:20;13.90;99.90
39189;DHT22;24915;50.858;4.376;2022-10-31T06:26:45;13.90;99.90
39189;DHT22;24915;50.858;4.376;2022-10-31T06:29:11;13.90;99.90
39189;DHT22;24915;50.858;4.376;2022-10-31T06:31:37;13.90;99.90
39189;DHT22;24915;50.858;4.376;2022-10-31T06:34:02;13.90;99.90
39189;DHT22;24915;50.858;4.376;2022-10-31T06:36:28;14.00;99.90
39189;DHT22;24915;50.858;4.376;2022-10-31T06:38:54;14.00;99.90
39189;DHT22;24915;50.858;4.376;2022-10-31T06:41:19;14.00;99.90
39189;DHT22;24915;50.858;4.376;2022-10-31T06:43:48;14.00;99.90
39189;DHT22;24915;50.858;4.376;2022-10-31T06:46:14;14.00;99.90
39189;DHT22;24915;50.858;4.376;2022-10-31T06:48:42;14.00;99.90
39189;DHT22;24915;50.858;4.376;2022-10-31T06:51:08;14.00;99.90
39189;DHT22;24915;50.858;4.376;2022-10-31T06:53:34;14.00;99.90
39189;DHT22;24915;50.858;4.376;2022-10-31T06:55:59;14.00;99.90
39189;DHT22;24915;50.858;4.376;2022-10-31T06:58:25;14.10;99.90
39189;DHT22;24915;50.858;4.376;2022-10-31T07:00:51;14.10;99.90
39189;DHT22;24915;50.858;4.376;2022-10-31T07:03:17;14.10;99.90
39189;DHT22;24915;50.858;4.376;2022-10-31T07:05:43;14.10;99.90
39189;DHT22;24915;50.858;4.376;2022-10-31T07:08:11;14.10;99.90
39189;DHT22;24915;50.858;4.376;2022-10-31T07:10:38;14.20;99.90
39189;DHT22;24915;50.858;4.376;2022-10-31T07:13:05;14.20;99.90
39189;DHT22;24915;50.858;4.376;2022-10-31T07:15:37;14.20;99.90
39189;DHT22;24915;50.858;4.376;2022-10-31T07:18:04;14.20;99.90
39189;DHT22;24915;50.858;4.376;2022-10-31T07:20:30;14.20;99.90
39189;DHT22;24915;50.858;4.376;2022-10-31T07:22:56;14.20;99.90
39189;DHT22;24915;50.858;4.376;2022-10-31T07:25:23;14.30;99.90
39189;DHT22;24915;50.858;4.376;2022-10-31T07:27:48;14.30;99.90
39189;DHT22;24915;50.858;4.376;2022-10-31T07:30:14;14.40;99.90
39189;DHT22;24915;50.858;4.376;2022-10-31T07:32:44;14.40;99.90
39189;DHT22;24915;50.858;4.376;2022-10-31T07:35:12;14.40;99.90
39189;DHT22;24915;50.858;4.376;2022-10-31T07:37:38;14.40;99.90
39189;DHT22;24915;50.858;4.376;2022-10-31T07:40:05;14.30;99.90
39189;DHT22;24915;50.858;4.376;2022-10-31T07:42:38;14.30;99.90
39189;DHT22;24915;50.858;4.376;2022-10-31T07:45:05;14.30;99.90
39189;DHT22;24915;50.858;4.376;2022-10-31T07:48:00;14.30;99.90
39189;DHT22;24915;50.858;4.376;2022-10-31T07:50:31;14.30;99.90
39189;DHT22;24915;50.858;4.376;2022-10-31T07:53:03;14.30;99.90
39189;DHT22;24915;50.858;4.376;2022-10-31T07:55:29;14.30;99.90
39189;DHT22;24915;50.858;4.376;2022-10-31T07:58:03;14.30;99.90
39189;DHT22;24915;50.858;4.376;2022-10-31T08:00:30;14.40;99.90
39189;DHT22;24915;50.858;4.376;2022-10-31T08:03:04;14.40;99.90
39189;DHT22;24915;50.858;4.376;2022-10-31T08:05:31;14.40;99.90
39189;DHT22;24915;50.858;4.376;2022-10-31T08:07:57;14.50;99.90
39189;DHT22;24915;50.858;4.376;2022-10-31T08:10:23;14.60;99.90
39189;DHT22;24915;50.858;4.376;2022-10-31T08:13:04;14.60;99.90
39189;DHT22;24915;50.858;4.376;2022-10-31T08:15:30;14.70;99.90
39189;DHT22;24915;50.858;4.376;2022-10-31T08:17:56;14.80;99.90
39189;DHT22;24915;50.858;4.376;2022-10-31T08:20:22;14.90;99.90
39189;DHT22;24915;50.858;4.376;2022-10-31T08:22:59;14.90;99.90
39189;DHT22;24915;50.858;4.376;2022-10-31T08:25:28;15.00;99.90
39189;DHT22;24915;50.858;4.376;2022-10-31T08:27:54;15.00;99.90
39189;DHT22;24915;50.858;4.376;2022-10-31T08:30:22;15.10;99.90
39189;DHT22;24915;50.858;4.376;2022-10-31T08:32:57;15.10;99.90
39189;DHT22;24915;50.858;4.376;2022-10-31T08:35:23;15.20;99.90
39189;DHT22;24915;50.858;4.376;2022-10-31T08:37:53;15.20;99.90
39189;DHT22;24915;50.858;4.376;2022-10-31T08:40:19;15.30;99.90
39189;DHT22;24915;50.858;4.376;2022-10-31T08:42:45;15.30;99.90
39189;DHT22;24915;50.858;4.376;2022-10-31T08:45:11;15.30;99.90
39189;DHT22;24915;50.858;4.376;2022-10-31T08:47:36;15.40;99.90
39189;DHT22;24915;50.858;4.376;2022-10-31T08:50:02;15.40;99.90
39189;DHT22;24915;50.858;4.376;2022-10-31T08:52:28;15.50;99.90
39189;DHT22;24915;50.858;4.376;2022-10-31T08:54:54;15.50;99.90
39189;DHT22;24915;50.858;4.376;2022-10-31T08:57:19;15.50;99.90
39189;DHT22;24915;50.858;4.376;2022-10-31T08:59:45;15.60;99.90
39189;DHT22;24915;50.858;4.376;2022-10-31T09:02:11;15.60;99.90
39189;DHT22;24915;50.858;4.376;2022-10-31T09:04:36;15.60;99.90
39189;DHT22;24915;50.858;4.376;2022-10-31T09:07:02;15.60;99.90
39189;DHT22;24915;50.858;4.376;2022-10-31T09:09:27;15.50;99.90
39189;DHT22;24915;50.858;4.376;2022-10-31T09:11:53;15.60;99.90
39189;DHT22;24915;50.858;4.376;2022-10-31T09:14:19;15.60;99.90
39189;DHT22;24915;50.858;4.376;2022-10-31T09:16:44;15.70;99.90
39189;DHT22;24915;50.858;4.376;2022-10-31T09:19:10;15.70;99.90
39189;DHT22;24915;50.858;4.376;2022-10-31T09:21:35;15.70;99.90
39189;DHT22;24915;50.858;4.376;2022-10-31T09:24:01;15.70;99.90
39189;DHT22;24915;50.858;4.376;2022-10-31T09:26:27;15.70;99.90
39189;DHT22;24915;50.858;4.376;2022-10-31T09:28:52;15.70;99.90
39189;DHT22;24915;50.858;4.376;2022-10-31T09:31:18;15.70;99.90
39189;DHT22;24915;50.858;4.376;2022-10-31T09:33:43;15.70;99.90
39189;DHT22;24915;50.858;4.376;2022-10-31T09:36:09;15.70;99.90
39189;DHT22;24915;50.858;4.376;2022-10-31T09:38:35;15.70;99.90
39189;DHT22;24915;50.858;4.376;2022-10-31T09:41:24;15.70;99.90
39189;DHT22;24915;50.858;4.376;2022-10-31T09:51:44;15.70;99.90
39189;DHT22;24915;50.858;4.376;2022-10-31T09:54:34;15.80;99.90
39189;DHT22;24915;50.858;4.376;2022-10-31T09:57:00;15.90;99.90
39189;DHT22;24915;50.858;4.376;2022-10-31T09:59:31;15.90;99.90
39189;DHT22;24915;50.858;4.376;2022-10-31T10:04:52;16.00;99.90
39189;DHT22;24915;50.858;4.376;2022-10-31T10:13:29;16.20;99.90
39189;DHT22;24915;50.858;4.376;2022-10-31T10:16:07;16.30;99.90
39189;DHT22;24915;50.858;4.376;2022-10-31T10:21:25;16.40;99.90
39189;DHT22;24915;50.858;4.376;2022-10-31T10:30:39;16.70;99.90
39189;DHT22;24915;50.858;4.376;2022-10-31T10:33:19;16.70;99.90
39189;DHT22;24915;50.858;4.376;2022-10-31T10:36:09;16.80;99.90
39189;DHT22;24915;50.858;4.376;2022-10-31T10:38:54;16.90;99.90
39189;DHT22;24915;50.858;4.376;2022-10-31T10:41:22;16.90;99.90
39189;DHT22;24915;50.858;4.376;2022-10-31T10:43:52;16.90;99.90
39189;DHT22;24915;50.858;4.376;2022-10-31T10:46:41;16.90;99.90
39189;DHT22;24915;50.858;4.376;2022-10-31T10:49:38;16.90;99.90
39189;DHT22;24915;50.858;4.376;2022-10-31T11:00:20;17.00;99.90
39189;DHT22;24915;50.858;4.376;2022-10-31T11:02:47;17.10;99.90
39189;DHT22;24915;50.858;4.376;2022-10-31T11:05:42;17.20;99.90
39189;DHT22;24915;50.858;4.376;2022-10-31T11:08:08;17.20;99.90
39189;DHT22;24915;50.858;4.376;2022-10-31T11:10:34;17.30;99.90
39189;DHT22;24915;50.858;4.376;2022-10-31T11:13:17;17.40;99.90
39189;DHT22;24915;50.858;4.376;2022-10-31T11:16:00;17.50;99.90
39189;DHT22;24915;50.858;4.376;2022-10-31T11:18:30;17.70;99.90
39189;DHT22;24915;50.858;4.376;2022-10-31T11:20:58;17.80;99.90
39189;DHT22;24915;50.858;4.376;2022-10-31T11:23:26;17.90;99.90
39189;DHT22;24915;50.858;4.376;2022-10-31T11:28:23;18.10;99.90
39189;DHT22;24915;50.858;4.376;2022-10-31T11:30:54;18.20;99.90
39189;DHT22;24915;50.858;4.376;2022-10-31T11:33:30;18.20;99.90
39189;DHT22;24915;50.858;4.376;2022-10-31T11:35:57;18.20;99.90
39189;DHT22;24915;50.858;4.376;2022-10-31T11:38:27;18.30;99.90
39189;DHT22;24915;50.858;4.376;2022-10-31T11:44:00;18.40;99.90
39189;DHT22;24915;50.858;4.376;2022-10-31T11:46:33;18.50;99.90
39189;DHT22;24915;50.858;4.376;2022-10-31T11:49:00;18.60;99.90
39189;DHT22;24915;50.858;4.376;2022-10-31T11:51:29;18.60;99.90
39189;DHT22;24915;50.858;4.376;2022-10-31T11:53:57;18.80;99.90
39189;DHT22;24915;50.858;4.376;2022-10-31T11:56:23;18.80;99.90
39189;DHT22;24915;50.858;4.376;2022-10-31T11:59:01;18.90;99.90
39189;DHT22;24915;50.858;4.376;2022-10-31T12:01:32;19.00;99.90
39189;DHT22;24915;50.858;4.376;2022-10-31T12:04:09;19.10;99.90
39189;DHT22;24915;50.858;4.376;2022-10-31T12:06:37;19.30;99.90
39189;DHT22;24915;50.858;4.376;2022-10-31T12:09:22;19.30;99.90
39189;DHT22;24915;50.858;4.376;2022-10-31T12:12:21;19.60;99.90
39189;DHT22;24915;50.858;4.376;2022-10-31T12:28:37;22.40;99.90
39189;DHT22;24915;50.858;4.376;2022-10-31T12:49:02;24.90;99.90
39189;DHT22;24915;50.858;4.376;2022-10-31T12:51:06;25.10;99.90
39189;DHT22;24915;50.858;4.376;2022-10-31T12:53:55;25.40;99.90
39189;DHT22;24915;50.858;4.376;2022-10-31T13:07:05;25.80;99.90
39189;DHT22;24915;50.858;4.376;2022-10-31T13:09:41;25.80;99.90
39189;DHT22;24915;50.858;4.376;2022-10-31T13:12:11;25.90;99.90
39189;DHT22;24915;50.858;4.376;2022-10-31T13:15:16;26.10;99.90
39189;DHT22;24915;50.858;4.376;2022-10-31T13:17:55;26.60;99.90
39189;DHT22;24915;50.858;4.376;2022-10-31T13:20:40;26.80;99.90
39189;DHT22;24915;50.858;4.376;2022-10-31T13:23:32;27.00;99.90
39189;DHT22;24915;50.858;4.376;2022-10-31T13:26:01;27.00;99.70
39189;DHT22;24915;50.858;4.376;2022-10-31T13:28:54;26.70;98.80
39189;DHT22;24915;50.858;4.376;2022-10-31T13:31:21;26.70;98.80
39189;DHT22;24915;50.858;4.376;2022-10-31T13:33:51;26.50;99.20
39189;DHT22;24915;50.858;4.376;2022-10-31T13:38:53;26.70;98.80
39189;DHT22;24915;50.858;4.376;2022-10-31T13:41:27;26.90;99.00
39189;DHT22;24915;50.858;4.376;2022-10-31T13:46:46;27.40;98.00
39189;DHT22;24915;50.858;4.376;2022-10-31T13:51:49;28.40;96.30
39189;DHT22;24915;50.858;4.376;2022-10-31T13:54:30;28.90;95.70
39189;DHT22;24915;50.858;4.376;2022-10-31T13:56:56;29.50;94.80
39189;DHT22;24915;50.858;4.376;2022-10-31T13:59:23;29.90;93.70
39189;DHT22;24915;50.858;4.376;2022-10-31T14:01:58;30.30;93.00
39189;DHT22;24915;50.858;4.376;2022-10-31T14:04:28;30.80;92.40
39189;DHT22;24915;50.858;4.376;2022-10-31T14:06:57;31.20;91.20
39189;DHT22;24915;50.858;4.376;2022-10-31T14:12:35;31.60;88.50
39189;DHT22;24915;50.858;4.376;2022-10-31T14:15:23;31.70;86.90
39189;DHT22;24915;50.858;4.376;2022-10-31T14:17:56;31.50;87.90
39189;DHT22;24915;50.858;4.376;2022-10-31T14:20:32;31.60;85.60
39189;DHT22;24915;50.858;4.376;2022-10-31T14:23:09;31.70;84.80
39189;DHT22;24915;50.858;4.376;2022-10-31T14:25:37;31.80;83.90
39189;DHT22;24915;50.858;4.376;2022-10-31T14:28:22;31.70;81.90
39189;DHT22;24915;50.858;4.376;2022-10-31T14:30:56;31.20;83.60
39189;DHT22;24915;50.858;4.376;2022-10-31T14:33:24;31.00;81.90
39189;DHT22;24915;50.858;4.376;2022-10-31T14:53:42;28.50;85.90
39189;DHT22;24915;50.858;4.376;2022-10-31T14:56:10;27.80;88.40
39189;DHT22;24915;50.858;4.376;2022-10-31T14:58:41;27.80;88.20
39189;DHT22;24915;50.858;4.376;2022-10-31T15:01:28;27.70;89.00
39189;DHT22;24915;50.858;4.376;2022-10-31T15:04:17;27.80;89.80
39189;DHT22;24915;50.858;4.376;2022-10-31T15:06:47;27.50;89.60
39189;DHT22;24915;50.858;4.376;2022-10-31T15:09:40;27.50;89.90
39189;DHT22;24915;50.858;4.376;2022-10-31T15:12:22;27.00;90.50
39189;DHT22;24915;50.858;4.376;2022-10-31T15:14:48;25.90;91.40
39189;DHT22;24915;50.858;4.376;2022-10-31T15:17:14;25.10;93.10
39189;DHT22;24915;50.858;4.376;2022-10-31T15:19:39;24.40;94.20
39189;DHT22;24915;50.858;4.376;2022-10-31T15:22:06;23.60;95.70
39189;DHT22;24915;50.858;4.376;2022-10-31T15:24:37;23.10;96.80
39189;DHT22;24915;50.858;4.376;2022-10-31T15:27:04;22.70;97.60
39189;DHT22;24915;50.858;4.376;2022-10-31T15:29:31;22.30;98.70
39189;DHT22;24915;50.858;4.376;2022-10-31T15:31:58;22.20;99.20
39189;DHT22;24915;50.858;4.376;2022-10-31T15:34:38;22.20;99.90
39189;DHT22;24915;50.858;4.376;2022-10-31T15:37:09;21.90;99.90
39189;DHT22;24915;50.858;4.376;2022-10-31T15:39:36;21.60;99.90
39189;DHT22;24915;50.858;4.376;2022-10-31T15:42:02;21.30;99.90
39189;DHT22;24915;50.858;4.376;2022-10-31T15:44:28;21.00;99.90
39189;DHT22;24915;50.858;4.376;2022-10-31T15:47:04;20.70;99.90
39189;DHT22;24915;50.858;4.376;2022-10-31T15:57:40;19.80;99.90
39189;DHT22;24915;50.858;4.376;2022-10-31T16:00:25;19.60;99.90
39189;DHT22;24915;50.858;4.376;2022-10-31T16:05:51;19.40;99.90
39189;DHT22;24915;50.858;4.376;2022-10-31T16:10:57;19.20;99.90
39189;DHT22;24915;50.858;4.376;2022-10-31T16:13:30;19.10;99.90
39189;DHT22;24915;50.858;4.376;2022-10-31T16:16:02;19.00;99.90
39189;DHT22;24915;50.858;4.376;2022-10-31T16:18:34;18.90;99.90
39189;DHT22;24915;50.858;4.376;2022-10-31T16:21:00;18.80;99.90
39189;DHT22;24915;50.858;4.376;2022-10-31T16:23:26;18.70;99.90
39189;DHT22;24915;50.858;4.376;2022-10-31T16:25:53;18.60;99.90
39189;DHT22;24915;50.858;4.376;2022-10-31T16:28:21;18.60;99.90
39189;DHT22;24915;50.858;4.376;2022-10-31T16:30:49;18.50;99.90
39189;DHT22;24915;50.858;4.376;2022-10-31T16:33:30;18.40;99.90
39189;DHT22;24915;50.858;4.376;2022-10-31T16:36:00;18.40;99.90
39189;DHT22;24915;50.858;4.376;2022-10-31T16:38:28;18.30;99.90
39189;DHT22;24915;50.858;4.376;2022-10-31T16:40:53;18.30;99.90
39189;DHT22;24915;50.858;4.376;2022-10-31T16:43:20;18.20;99.90
39189;DHT22;24915;50.858;4.376;2022-10-31T16:45:51;18.20;99.90
39189;DHT22;24915;50.858;4.376;2022-10-31T16:48:21;18.20;99.90
39189;DHT22;24915;50.858;4.376;2022-10-31T16:50:49;18.10;99.90
39189;DHT22;24915;50.858;4.376;2022-10-31T16:53:15;18.10;99.90
39189;DHT22;24915;50.858;4.376;2022-10-31T16:55:54;18.00;99.90
39189;DHT22;24915;50.858;4.376;2022-10-31T16:58:28;18.00;99.90
39189;DHT22;24915;50.858;4.376;2022-10-31T17:00:55;18.00;99.90
39189;DHT22;24915;50.858;4.376;2022-10-31T17:03:22;18.00;99.90
39189;DHT22;24915;50.858;4.376;2022-10-31T17:05:47;18.00;99.90
39189;DHT22;24915;50.858;4.376;2022-10-31T17:08:13;18.00;99.90
39189;DHT22;24915;50.858;4.376;2022-10-31T17:10:40;17.90;99.90
39189;DHT22;24915;50.858;4.376;2022-10-31T17:13:09;17.80;99.90
39189;DHT22;24915;50.858;4.376;2022-10-31T17:15:41;17.80;99.90
39189;DHT22;24915;50.858;4.376;2022-10-31T17:18:08;17.80;99.90
39189;DHT22;24915;50.858;4.376;2022-10-31T17:20:34;17.80;99.90
39189;DHT22;24915;50.858;4.376;2022-10-31T17:23:00;17.80;99.90
39189;DHT22;24915;50.858;4.376;2022-10-31T17:25:27;17.80;99.90
39189;DHT22;24915;50.858;4.376;2022-10-31T17:27:54;17.80;99.90
39189;DHT22;24915;50.858;4.376;2022-10-31T17:30:21;17.80;99.90
39189;DHT22;24915;50.858;4.376;2022-10-31T17:32:47;17.80;99.90
39189;DHT22;24915;50.858;4.376;2022-10-31T17:35:14;17.80;99.90
39189;DHT22;24915;50.858;4.376;2022-10-31T17:37:41;17.70;99.90
39189;DHT22;24915;50.858;4.376;2022-10-31T17:40:11;17.80;99.90
39189;DHT22;24915;50.858;4.376;2022-10-31T17:42:37;17.80;99.90
39189;DHT22;24915;50.858;4.376;2022-10-31T17:45:04;17.80;99.90
39189;DHT22;24915;50.858;4.376;2022-10-31T17:47:30;17.70;99.90
39189;DHT22;24915;50.858;4.376;2022-10-31T17:49:56;17.80;99.90
39189;DHT22;24915;50.858;4.376;2022-10-31T17:52:22;17.70;99.90
39189;DHT22;24915;50.858;4.376;2022-10-31T17:54:47;17.70;99.90
39189;DHT22;24915;50.858;4.376;2022-10-31T17:57:13;17.70;99.90
39189;DHT22;24915;50.858;4.376;2022-10-31T17:59:39;17.70;99.90
39189;DHT22;24915;50.858;4.376;2022-10-31T18:02:04;17.70;99.90
39189;DHT22;24915;50.858;4.376;2022-10-31T18:04:35;17.60;99.90
39189;DHT22;24915;50.858;4.376;2022-10-31T18:07:01;17.60;99.90
39189;DHT22;24915;50.858;4.376;2022-10-31T18:09:26;17.60;99.90
39189;DHT22;24915;50.858;4.376;2022-10-31T18:11:52;17.60;99.90
39189;DHT22;24915;50.858;4.376;2022-10-31T18:14:18;17.60;99.90
39189;DHT22;24915;50.858;4.376;2022-10-31T18:16:44;17.60;99.90